Time;durP1;ratioP1;P1;durP2;ratioP2;P2;SDS_P1;SDS_P2;PMS_P1;PMS_P2;Temp;Humidity;BMP_temperature;BMP_pressure;BME280_temperature;BME280_humidity;BME280_pressure;Samples;Min_cycle;Max_cycle;Signal;HPM_P1;HPM_P2
2023/01/08 00:01:39;;;;;;;;;;;;;;;;;;5007978;28;20002;-57
2023/01/08 00:04:05;;;;;;;;;;;;;;;;;;5022016;28;19924;-56
2023/01/08 00:06:30;;;;;;;;;;;;;;;;;;5000196;28;20302;-57
2023/01/08 00:08:56;;;;;;;;;;;;;;;;;;5008784;28;19944;-57
2023/01/08 00:11:22;;;;;;;;;;;;;;;;;;5020364;28;20063;-57
2023/01/08 00:13:48;;;;;;;;;;;;;;;;;;4986382;28;20418;-57
2023/01/08 00:16:14;;;;;;;;;;;;;;;;;;4981245;28;20045;-56
2023/01/08 00:18:40;;;;;;;;;;;;;;;;;;5004630;28;19995;-56
2023/01/08 00:21:06;;;;;;;;;;;;;;;;;;4987815;28;19926;-56
2023/01/08 00:23:32;;;;;;;;;;;;;;;;;;4977609;28;19925;-56
2023/01/08 00:25:57;;;;;;;;;;;;;;;;;;4966580;28;19952;-56
2023/01/08 00:28:23;;;;;;;;;;;;;;;;;;4969945;28;19925;-56
2023/01/08 00:30:49;;;;;;;;;;;;;;;;;;4990045;28;19925;-57
2023/01/08 00:33:15;;;;;;;;;;;;;;;;;;5002707;28;19929;-57
2023/01/08 00:35:41;;;;;;;;;;;;;;;;;;4996863;28;19924;-57
2023/01/08 00:38:07;;;;;;;;;;;;;;;;;;5000691;28;19921;-57
2023/01/08 00:40:33;;;;;;;;;;;;;;;;;;5013554;28;20302;-57
2023/01/08 00:42:59;;;;;;;;;;;;;;;;;;4990356;28;19920;-56
2023/01/08 00:45:25;;;;;;;;;;;;;;;;;;4999835;28;19916;-56
2023/01/08 00:47:51;;;;;;;;;;;;;;;;;;4986951;28;19928;-56
2023/01/08 00:50:16;;;;;;;;;;;;;;;;;;4978019;28;19942;-56
2023/01/08 00:52:42;;;;;;;;;;;;;;;;;;4958035;28;19926;-57
2023/01/08 00:55:08;;;;;;;;;;;;;;;;;;4987284;28;19944;-57
2023/01/08 00:57:34;;;;;;;;;;;;;;;;;;5001589;28;19928;-57
2023/01/08 01:00:00;;;;;;;;;;;;;;;;;;4984684;28;20362;-57
2023/01/08 01:02:26;;;;;;;;;;;;;;;;;;4983915;28;20447;-57
2023/01/08 01:04:52;;;;;;;;;;;;;;;;;;5009247;28;20405;-56
2023/01/08 01:07:18;;;;;;;;;;;;;;;;;;5004816;28;19920;-57
2023/01/08 01:09:44;;;;;;;;;;;;;;;;;;4994320;28;19925;-57
2023/01/08 01:12:10;;;;;;;;;;;;;;;;;;4991951;28;20695;-56
2023/01/08 01:14:36;;;;;;;;;;;;;;;;;;4985657;28;20030;-57
2023/01/08 01:17:02;;;;;;;;;;;;;;;;;;5001627;28;19926;-57
2023/01/08 01:19:27;;;;;;;;;;;;;;;;;;5014720;28;19921;-56
2023/01/08 01:21:53;;;;;;;;;;;;;;;;;;5003402;28;20418;-57
2023/01/08 01:24:22;;;;;;;;;;;;;;;;;;5016516;28;20435;-57
2023/01/08 01:26:48;;;;;;;;;;;;;;;;;;4999152;28;20305;-57
2023/01/08 01:29:14;;;;;;;;;;;;;;;;;;4997639;28;19933;-57
2023/01/08 01:31:40;;;;;;;;;;;;;;;;;;4984684;28;19996;-57
2023/01/08 01:34:06;;;;;;;;;;;;;;;;;;4996695;28;19917;-57
2023/01/08 01:36:31;;;;;;;;;;;;;;;;;;4993675;28;19931;-57
2023/01/08 01:38:57;;;;;;;;;;;;;;;;;;4998380;28;19928;-57
2023/01/08 01:41:23;;;;;;;;;;;;;;;;;;4995044;28;19967;-56
2023/01/08 01:43:49;;;;;;;;;;;;;;;;;;5002832;28;19924;-56
2023/01/08 01:46:15;;;;;;;;;;;;;;;;;;4964734;28;19932;-56
2023/01/08 01:48:41;;;;;;;;;;;;;;;;;;4988283;28;19920;-57
2023/01/08 01:51:07;;;;;;;;;;;;;;;;;;5003389;28;19948;-57
2023/01/08 01:53:33;;;;;;;;;;;;;;;;;;4975623;28;20564;-57
2023/01/08 01:55:59;;;;;;;;;;;;;;;;;;4999231;28;20262;-57
2023/01/08 01:58:24;;;;;;;;;;;;;;;;;;5003435;28;19925;-57
2023/01/08 02:00:50;;;;;;;;;;;;;;;;;;4982083;28;19929;-57
2023/01/08 02:03:16;;;;;;;;;;;;;;;;;;4994709;28;19948;-56
2023/01/08 02:05:42;;;;;;;;;;;;;;;;;;4990144;28;19924;-56
2023/01/08 02:08:08;;;;;;;;;;;;;;;;;;5002434;28;19979;-57
2023/01/08 02:10:34;;;;;;;;;;;;;;;;;;4990576;28;19940;-56
2023/01/08 02:13:00;;;;;;;;;;;;;;;;;;4972819;28;19965;-57
2023/01/08 02:15:26;;;;;;;;;;;;;;;;;;4978784;28;19925;-57
2023/01/08 02:17:52;;;;;;;;;;;;;;;;;;4988187;28;19996;-57
2023/01/08 02:20:18;;;;;;;;;;;;;;;;;;4993910;28;20454;-57
2023/01/08 02:22:44;;;;;;;;;;;;;;;;;;5002830;28;19925;-57
2023/01/08 02:25:09;;;;;;;;;;;;;;;;;;4991447;28;20385;-56
2023/01/08 02:27:35;;;;;;;;;;;;;;;;;;5007023;28;19917;-57
2023/01/08 02:30:01;;;;;;;;;;;;;;;;;;4999530;28;20855;-57
2023/01/08 02:32:27;;;;;;;;;;;;;;;;;;4991477;28;20378;-56
2023/01/08 02:34:53;;;;;;;;;;;;;;;;;;4996852;28;19929;-57
2023/01/08 02:37:19;;;;;;;;;;;;;;;;;;4979801;28;19983;-57
2023/01/08 02:39:45;;;;;;;;;;;;;;;;;;4966082;28;19928;-56
2023/01/08 02:42:11;;;;;;;;;;;;;;;;;;4955867;28;20571;-57
2023/01/08 02:44:36;;;;;;;;;;;;;;;;;;4999862;28;20031;-56
2023/01/08 02:47:02;;;;;;;;;;;;;;;;;;4958942;28;20024;-57
2023/01/08 02:49:28;;;;;;;;;;;;;;;;;;4975608;28;19925;-57
2023/01/08 02:51:54;;;;;;;;;;;;;;;;;;4992914;28;20416;-57
2023/01/08 02:54:20;;;;;;;;;;;;;;;;;;4993636;28;19924;-57
2023/01/08 02:56:46;;;;;;;;;;;;;;;;;;4996913;28;20406;-57
2023/01/08 02:59:12;;;;;;;;;;;;;;;;;;4967802;28;20187;-57
2023/01/08 03:01:38;;;;;;;;;;;;;;;;;;4995353;28;19984;-57
2023/01/08 03:04:03;;;;;;;;;;;;;;;;;;4962760;28;19949;-57
2023/01/08 03:06:29;;;;;;;;;;;;;;;;;;4990933;28;20449;-57
2023/01/08 03:08:55;;;;;;;;;;;;;;;;;;4985570;28;19918;-57
2023/01/08 03:11:21;;;;;;;;;;;;;;;;;;4956778;28;19925;-57
2023/01/08 03:13:47;;;;;;;;;;;;;;;;;;4954853;28;20379;-56
2023/01/08 03:16:13;;;;;;;;;;;;;;;;;;4985583;28;20441;-57
2023/01/08 03:18:39;;;;;;;;;;;;;;;;;;4973679;28;19921;-57
2023/01/08 03:21:05;;;;;;;;;;;;;;;;;;4964340;28;19988;-56
2023/01/08 03:23:30;;;;;;;;;;;;;;;;;;4956515;28;20655;-56
2023/01/08 03:25:56;;;;;;;;;;;;;;;;;;4967941;28;19968;-57
2023/01/08 03:28:22;;;;;;;;;;;;;;;;;;4987518;28;19925;-57
2023/01/08 03:30:48;;;;;;;;;;;;;;;;;;4975360;28;19925;-56
2023/01/08 03:33:14;;;;;;;;;;;;;;;;;;4974801;28;19925;-57
2023/01/08 03:35:40;;;;;;;;;;;;;;;;;;4966356;28;19918;-57
2023/01/08 03:38:06;;;;;;;;;;;;;;;;;;4999199;28;19975;-57
2023/01/08 03:40:32;;;;;;;;;;;;;;;;;;5000714;28;19930;-57
2023/01/08 03:42:57;;;;;;;;;;;;;;;;;;4978542;28;20236;-57
2023/01/08 03:45:23;;;;;;;;;;;;;;;;;;4958211;28;20016;-57
2023/01/08 03:47:49;;;;;;;;;;;;;;;;;;4968597;28;20335;-56
2023/01/08 03:50:15;;;;;;;;;;;;;;;;;;4968106;28;19928;-57
2023/01/08 03:52:41;;;;;;;;;;;;;;;;;;4977403;28;19925;-57
2023/01/08 03:55:07;;;;;;;;;;;;;;;;;;4977451;28;20272;-57
2023/01/08 03:57:33;;;;;;;;;;;;;;;;;;4966865;28;19932;-57
2023/01/08 03:59:58;;;;;;;;;;;;;;;;;;4978526;28;20367;-57
2023/01/08 04:02:24;;;;;;;;;;;;;;;;;;4985341;28;19964;-57
2023/01/08 04:04:50;;;;;;;;;;;;;;;;;;4998270;28;20014;-57
2023/01/08 04:07:16;;;;;;;;;;;;;;;;;;4978013;28;20013;-57
2023/01/08 04:09:42;;;;;;;;;;;;;;;;;;4984910;28;19925;-56
2023/01/08 04:12:08;;;;;;;;;;;;;;;;;;4990649;28;19954;-57
2023/01/08 04:14:34;;;;;;;;;;;;;;;;;;4979587;28;19928;-57
2023/01/08 04:17:00;;;;;;;;;;;;;;;;;;4970237;28;20042;-56
2023/01/08 04:19:26;;;;;;;;;;;;;;;;;;4982649;28;19921;-56
2023/01/08 04:21:51;;;;;;;;;;;;;;;;;;4969700;28;19984;-57
2023/01/08 04:24:17;;;;;;;;;;;;;;;;;;5001766;28;20012;-57
2023/01/08 04:26:43;;;;;;;;;;;;;;;;;;4983014;28;19926;-56
2023/01/08 04:29:09;;;;;;;;;;;;;;;;;;4989464;28;19917;-57
2023/01/08 04:31:35;;;;;;;;;;;;;;;;;;4962456;28;20366;-57
2023/01/08 04:34:01;;;;;;;;;;;;;;;;;;4991102;28;20890;-57
2023/01/08 04:36:27;;;;;;;;;;;;;;;;;;4996352;28;19956;-56
2023/01/08 04:38:53;;;;;;;;;;;;;;;;;;4999871;28;19925;-57
2023/01/08 04:41:18;;;;;;;;;;;;;;;;;;4993156;28;20470;-56
2023/01/08 04:43:44;;;;;;;;;;;;;;;;;;4991762;28;19921;-56
2023/01/08 04:46:10;;;;;;;;;;;;;;;;;;4995363;28;20687;-56
2023/01/08 04:48:36;;;;;;;;;;;;;;;;;;4979268;28;19920;-57
2023/01/08 04:51:02;;;;;;;;;;;;;;;;;;5003111;28;19932;-57
2023/01/08 04:53:28;;;;;;;;;;;;;;;;;;5007400;28;19918;-57
2023/01/08 04:55:54;;;;;;;;;;;;;;;;;;5004386;28;20437;-57
2023/01/08 04:58:20;;;;;;;;;;;;;;;;;;5000597;28;19931;-56
2023/01/08 05:00:45;;;;;;;;;;;;;;;;;;5017046;28;19925;-57
2023/01/08 05:03:11;;;;;;;;;;;;;;;;;;4999366;28;20375;-56
2023/01/08 05:05:37;;;;;;;;;;;;;;;;;;5006713;28;19925;-57
2023/01/08 05:08:03;;;;;;;;;;;;;;;;;;5004136;28;20472;-57
2023/01/08 05:10:29;;;;;;;;;;;;;;;;;;4982126;28;20943;-57
2023/01/08 05:12:55;;;;;;;;;;;;;;;;;;4988707;28;19921;-56
2023/01/08 05:15:21;;;;;;;;;;;;;;;;;;4963527;28;20370;-57
2023/01/08 05:17:46;;;;;;;;;;;;;;;;;;4980879;28;19974;-57
2023/01/08 05:20:12;;;;;;;;;;;;;;;;;;4984921;28;19927;-57
2023/01/08 05:22:38;;;;;;;;;;;;;;;;;;5003877;28;20373;-57
2023/01/08 05:25:04;;;;;;;;;;;;;;;;;;4977421;28;19933;-57
2023/01/08 05:27:30;;;;;;;;;;;;;;;;;;4974813;28;19929;-56
2023/01/08 05:29:56;;;;;;;;;;;;;;;;;;4999319;28;24160;-56
2023/01/08 05:32:22;;;;;;;;;;;;;;;;;;4987761;28;19927;-57
2023/01/08 05:34:47;;;;;;;;;;;;;;;;;;4989177;28;19921;-57
2023/01/08 05:37:13;;;;;;;;;;;;;;;;;;4988932;28;20326;-56
2023/01/08 05:39:39;;;;;;;;;;;;;;;;;;4979313;28;20397;-56
2023/01/08 05:42:05;;;;;;;;;;;;;;;;;;5004979;28;20028;-57
2023/01/08 05:44:31;;;;;;;;;;;;;;;;;;5022149;28;19932;-57
2023/01/08 05:46:57;;;;;;;;;;;;;;;;;;5000127;28;20350;-56
2023/01/08 05:49:23;;;;;;;;;;;;;;;;;;4998218;28;19925;-56
2023/01/08 05:51:49;;;;;;;;;;;;;;;;;;5025587;28;20353;-56
2023/01/08 05:54:14;;;;;;;;;;;;;;;;;;5008725;28;19922;-57
2023/01/08 05:56:42;;;;;;;;;;;;;;;;;;5004486;28;20661;-57
2023/01/08 05:59:08;;;;;;;;;;;;;;;;;;5026917;28;19971;-57
2023/01/08 06:01:34;;;;;;;;;;;;;;;;;;5032292;28;20031;-56
2023/01/08 06:04:00;;;;;;;;;;;;;;;;;;5010531;28;19924;-56
2023/01/08 06:06:26;;;;;;;;;;;;;;;;;;5020677;28;19928;-56
2023/01/08 06:08:52;;;;;;;;;;;;;;;;;;5016314;28;19918;-56
2023/01/08 06:11:17;;;;;;;;;;;;;;;;;;5018778;28;19924;-56
2023/01/08 06:13:43;;;;;;;;;;;;;;;;;;5019133;28;20015;-57
2023/01/08 06:16:09;;;;;;;;;;;;;;;;;;5012294;28;20297;-56
2023/01/08 06:18:35;;;;;;;;;;;;;;;;;;5017077;28;19917;-56
2023/01/08 06:21:01;;;;;;;;;;;;;;;;;;5014857;28;19944;-56
2023/01/08 06:23:27;;;;;;;;;;;;;;;;;;5006851;28;19982;-57
2023/01/08 06:25:53;;;;;;;;;;;;;;;;;;5005134;28;19932;-56
2023/01/08 06:28:19;;;;;;;;;;;;;;;;;;5000541;28;20053;-56
2023/01/08 06:30:44;;;;;;;;;;;;;;;;;;4993696;28;19925;-56
2023/01/08 06:33:10;;;;;;;;;;;;;;;;;;4996863;28;19922;-56
2023/01/08 06:35:36;;;;;;;;;;;;;;;;;;5007847;28;19931;-58
2023/01/08 06:38:02;;;;;;;;;;;;;;;;;;4998443;28;19951;-57
2023/01/08 06:40:28;;;;;;;;;;;;;;;;;;4957420;28;20383;-57
2023/01/08 06:42:54;;;;;;;;;;;;;;;;;;4977482;28;19925;-57
2023/01/08 06:45:20;;;;;;;;;;;;;;;;;;4987576;28;19918;-56
2023/01/08 06:47:46;;;;;;;;;;;;;;;;;;5020602;28;19983;-56
2023/01/08 06:50:12;;;;;;;;;;;;;;;;;;4972212;28;20012;-56
2023/01/08 06:52:37;;;;;;;;;;;;;;;;;;5002142;28;21132;-56
2023/01/08 06:55:04;;;;;;;;;;;;;;;;;;4979861;28;19917;-56
2023/01/08 06:57:30;;;;;;;;;;;;;;;;;;5012841;28;20362;-56
2023/01/08 06:59:56;;;;;;;;;;;;;;;;;;5014035;28;19925;-56
2023/01/08 07:02:22;;;;;;;;;;;;;;;;;;4982601;28;19961;-56
2023/01/08 07:04:48;;;;;;;;;;;;;;;;;;5005454;28;20043;-56
2023/01/08 07:07:14;;;;;;;;;;;;;;;;;;5005977;28;19921;-56
2023/01/08 07:09:40;;;;;;;;;;;;;;;;;;5006407;28;20350;-56
2023/01/08 07:12:07;;;;;;;;;;;;;;;;;;5002628;28;19924;-56
2023/01/08 07:14:33;;;;;;;;;;;;;;;;;;5015748;28;19921;-56
2023/01/08 07:16:59;;;;;;;;;;;;;;;;;;5000810;28;19928;-56
2023/01/08 07:19:25;;;;;;;;;;;;;;;;;;5011515;28;19920;-56
2023/01/08 07:21:51;;;;;;;;;;;;;;;;;;4998293;28;19929;-56
2023/01/08 07:24:17;;;;;;;;;;;;;;;;;;4991473;28;19925;-56
2023/01/08 07:26:43;;;;;;;;;;;;;;;;;;4977283;28;19925;-56
2023/01/08 07:29:08;;;;;;;;;;;;;;;;;;4986193;28;20738;-56
2023/01/08 07:31:34;;;;;;;;;;;;;;;;;;4960125;28;20028;-56
2023/01/08 07:34:00;;;;;;;;;;;;;;;;;;4966124;28;19925;-56
2023/01/08 07:36:26;;;;;;;;;;;;;;;;;;4978562;28;20288;-56
2023/01/08 07:38:52;;;;;;;;;;;;;;;;;;4980911;28;19925;-56
2023/01/08 07:41:18;;;;;;;;;;;;;;;;;;4999534;28;20308;-56
2023/01/08 07:43:44;;;;;;;;;;;;;;;;;;4979095;28;19920;-56
2023/01/08 07:46:09;;;;;;;;;;;;;;;;;;4994425;28;19925;-56
2023/01/08 07:48:35;;;;;;;;;;;;;;;;;;5007980;28;19928;-56
2023/01/08 07:51:01;;;;;;;;;;;;;;;;;;5001006;28;19917;-56
2023/01/08 07:53:27;;;;;;;;;;;;;;;;;;4998677;28;19928;-56
2023/01/08 07:55:53;;;;;;;;;;;;;;;;;;5005460;28;19925;-56
2023/01/08 07:58:19;;;;;;;;;;;;;;;;;;5013041;28;19925;-56
2023/01/08 08:00:45;;;;;;;;;;;;;;;;;;5014230;28;20267;-56
2023/01/08 08:03:11;;;;;;;;;;;;;;;;;;4984087;28;19968;-56
2023/01/08 08:05:37;;;;;;;;;;;;;;;;;;5017530;28;20367;-57
2023/01/08 08:08:03;;;;;;;;;;;;;;;;;;5002932;28;20008;-56
2023/01/08 08:10:29;;;;;;;;;;;;;;;;;;5006041;28;19921;-56
2023/01/08 08:12:55;;;;;;;;;;;;;;;;;;5008741;28;20021;-57
2023/01/08 08:15:21;;;;;;;;;;;;;;;;;;5022344;27;20035;-56
2023/01/08 08:17:46;;;;;;;;;;;;;;;;;;5008248;28;19927;-56
2023/01/08 08:20:12;;;;;;;;;;;;;;;;;;4965205;28;19920;-56
2023/01/08 08:22:38;;;;;;;;;;;;;;;;;;4992634;28;20020;-57
2023/01/08 08:25:04;;;;;;;;;;;;;;;;;;4980675;28;20309;-57
2023/01/08 08:27:30;;;;;;;;;;;;;;;;;;5015517;28;19969;-56
2023/01/08 08:29:56;;;;;;;;;;;;;;;;;;5001394;28;20064;-57
2023/01/08 08:32:22;;;;;;;;;;;;;;;;;;5008440;28;20011;-57
2023/01/08 08:34:49;;;;;;;;;;;;;;;;;;5011359;28;19925;-56
2023/01/08 08:37:15;;;;;;;;;;;;;;;;;;5003718;28;19936;-56
2023/01/08 08:39:41;;;;;;;;;;;;;;;;;;4999586;28;19921;-56
2023/01/08 08:42:07;;;;;;;;;;;;;;;;;;5020317;28;19935;-57
2023/01/08 08:44:32;;;;;;;;;;;;;;;;;;5001304;28;20538;-57
2023/01/08 08:46:58;;;;;;;;;;;;;;;;;;4998224;28;19975;-56
2023/01/08 08:49:24;;;;;;;;;;;;;;;;;;5005770;28;19921;-56
2023/01/08 08:51:51;;;;;;;;;;;;;;;;;;4993503;28;20433;-56
2023/01/08 08:54:17;;;;;;;;;;;;;;;;;;5009270;28;19949;-57
2023/01/08 08:56:43;;;;;;;;;;;;;;;;;;5011174;28;20016;-57
2023/01/08 08:59:11;;;;;;;;;;;;;;;;;;5013776;28;19978;-56
2023/01/08 09:01:37;;;;;;;;;;;;;;;;;;5012039;28;20028;-56
2023/01/08 09:04:03;;;;;;;;;;;;;;;;;;5005343;28;19920;-56
2023/01/08 09:06:30;;;;;;;;;;;;;;;;;;5026340;28;19948;-56
2023/01/08 09:08:56;;;;;;;;;;;;;;;;;;5021055;28;20380;-57
2023/01/08 09:11:22;;;;;;;;;;;;;;;;;;5015382;28;19961;-57
2023/01/08 09:13:48;;;;;;;;;;;;;;;;;;5018549;28;20386;-56
2023/01/08 09:16:14;;;;;;;;;;;;;;;;;;5012315;28;19929;-57
2023/01/08 09:18:40;;;;;;;;;;;;;;;;;;5014753;28;19917;-57
2023/01/08 09:21:06;;;;;;;;;;;;;;;;;;5014307;28;19982;-57
2023/01/08 09:23:32;;;;;;;;;;;;;;;;;;5012969;28;20417;-56
2023/01/08 09:25:57;;;;;;;;;;;;;;;;;;5013414;28;19945;-57
2023/01/08 09:28:23;;;;;;;;;;;;;;;;;;5019975;28;20400;-57
2023/01/08 09:30:49;;;;;;;;;;;;;;;;;;5005611;28;19925;-57
2023/01/08 09:33:15;;;;;;;;;;;;;;;;;;5000033;28;19917;-57
2023/01/08 09:35:41;;;;;;;;;;;;;;;;;;4994459;28;19979;-57
2023/01/08 09:38:07;;;;;;;;;;;;;;;;;;4994382;28;19922;-57
2023/01/08 09:40:33;;;;;;;;;;;;;;;;;;5008114;28;20030;-57
2023/01/08 09:42:58;;;;;;;;;;;;;;;;;;5023578;28;19925;-57
2023/01/08 09:45:24;;;;;;;;;;;;;;;;;;5002214;28;20596;-57
2023/01/08 09:47:50;;;;;;;;;;;;;;;;;;4986510;28;19921;-57
2023/01/08 09:50:16;;;;;;;;;;;;;;;;;;4991840;28;20030;-57
2023/01/08 09:52:42;;;;;;;;;;;;;;;;;;4976352;28;19925;-57
2023/01/08 09:55:08;;;;;;;;;;;;;;;;;;5014027;28;19917;-57
2023/01/08 09:57:34;;;;;;;;;;;;;;;;;;4971976;28;20001;-58
2023/01/08 10:00:00;;;;;;;;;;;;;;;;;;4980141;28;19931;-57
2023/01/08 10:02:27;;;;;;;;;;;;;;;;;;4982969;28;20390;-57
2023/01/08 10:04:53;;;;;;;;;;;;;;;;;;5005667;28;20429;-55
2023/01/08 10:07:20;;;;;;;;;;;;;;;;;;5011548;28;19933;-55
2023/01/08 10:09:46;;;;;;;;;;;;;;;;;;5016021;28;19999;-56
2023/01/08 10:12:12;;;;;;;;;;;;;;;;;;5018657;28;19964;-58
2023/01/08 10:14:38;;;;;;;;;;;;;;;;;;4982364;28;19927;-58
2023/01/08 10:17:04;;;;;;;;;;;;;;;;;;4992613;28;19925;-58
2023/01/08 10:19:29;;;;;;;;;;;;;;;;;;5016383;28;19983;-58
2023/01/08 10:21:56;;;;;;;;;;;;;;;;;;5014361;28;19931;-58
2023/01/08 10:24:21;;;;;;;;;;;;;;;;;;5003178;28;20268;-57
2023/01/08 10:26:47;;;;;;;;;;;;;;;;;;5043863;28;19931;-58
2023/01/08 10:29:13;;;;;;;;;;;;;;;;;;5011983;28;20922;-58
2023/01/08 10:31:39;;;;;;;;;;;;;;;;;;5000356;28;19925;-58
2023/01/08 10:34:05;;;;;;;;;;;;;;;;;;5012367;28;21068;-58
2023/01/08 10:36:31;;;;;;;;;;;;;;;;;;5014174;28;19963;-58
2023/01/08 10:38:57;;;;;;;;;;;;;;;;;;5000813;28;19927;-58
2023/01/08 10:41:22;;;;;;;;;;;;;;;;;;4967472;28;20310;-57
2023/01/08 10:43:48;;;;;;;;;;;;;;;;;;4972780;28;19925;-58
2023/01/08 10:46:14;;;;;;;;;;;;;;;;;;4982495;28;19994;-57
2023/01/08 10:48:40;;;;;;;;;;;;;;;;;;4989716;28;19928;-57
2023/01/08 10:51:06;;;;;;;;;;;;;;;;;;4976767;28;19926;-58
2023/01/08 10:53:32;;;;;;;;;;;;;;;;;;5000062;28;20364;-58
2023/01/08 10:55:58;;;;;;;;;;;;;;;;;;4987858;28;19922;-58
2023/01/08 10:58:24;;;;;;;;;;;;;;;;;;4985758;28;19924;-58
2023/01/08 11:00:50;;;;;;;;;;;;;;;;;;4992477;28;19934;-58
2023/01/08 11:03:16;;;;;;;;;;;;;;;;;;4999787;28;20015;-58
2023/01/08 11:05:42;;;;;;;;;;;;;;;;;;4974847;28;19922;-58
2023/01/08 11:08:07;;;;;;;;;;;;;;;;;;4979758;28;19968;-58
2023/01/08 11:10:33;;;;;;;;;;;;;;;;;;4961572;28;21000;-57
2023/01/08 11:12:59;;;;;;;;;;;;;;;;;;4978840;28;20319;-57
2023/01/08 11:15:25;;;;;;;;;;;;;;;;;;4983558;28;19925;-58
2023/01/08 11:17:51;;;;;;;;;;;;;;;;;;4981360;28;20381;-57
2023/01/08 11:20:17;;;;;;;;;;;;;;;;;;5000015;28;19982;-58
2023/01/08 11:22:43;;;;;;;;;;;;;;;;;;4982338;28;21593;-58
2023/01/08 11:25:08;;;;;;;;;;;;;;;;;;4979291;28;20452;-58
2023/01/08 11:27:34;;;;;;;;;;;;;;;;;;4971313;28;19925;-57
2023/01/08 11:30:00;;;;;;;;;;;;;;;;;;4978719;28;20008;-57
2023/01/08 11:32:26;;;;;;;;;;;;;;;;;;4983709;28;22085;-57
2023/01/08 11:34:52;;;;;;;;;;;;;;;;;;4974116;28;19925;-57
2023/01/08 11:37:18;;;;;;;;;;;;;;;;;;4995127;28;20044;-57
2023/01/08 11:39:44;;;;;;;;;;;;;;;;;;4963355;28;19981;-57
2023/01/08 11:42:11;;;;;;;;;;;;;;;;;;4979035;28;21373;-57
2023/01/08 11:44:37;;;;;;;;;;;;;;;;;;5000656;28;19928;-57
2023/01/08 11:47:03;;;;;;;;;;;;;;;;;;4998335;28;19987;-57
2023/01/08 11:49:29;;;;;;;;;;;;;;;;;;5013624;28;19932;-54
2023/01/08 11:51:55;;;;;;;;;;;;;;;;;;5004403;28;20008;-56
2023/01/08 11:54:21;;;;;;;;;;;;;;;;;;4968208;28;19931;-56
2023/01/08 11:56:47;;;;;;;;;;;;;;;;;;4988570;28;19914;-56
2023/01/08 11:59:12;;;;;;;;;;;;;;;;;;4985536;28;20351;-56
2023/01/08 12:01:38;;;;;;;;;;;;;;;;;;5007853;28;20130;-56
2023/01/08 12:04:04;;;;;;;;;;;;;;;;;;4994690;28;20407;-56
2023/01/08 12:06:30;;;;;;;;;;;;;;;;;;4967444;28;20442;-56
2023/01/08 12:08:56;;;;;;;;;;;;;;;;;;4995605;28;19918;-56
2023/01/08 12:11:22;;;;;;;;;;;;;;;;;;5001889;28;19956;-56
2023/01/08 12:13:48;;;;;;;;;;;;;;;;;;4985492;28;20335;-57
2023/01/08 12:16:13;;;;;;;;;;;;;;;;;;4966749;28;19926;-56
2023/01/08 12:18:39;;;;;;;;;;;;;;;;;;4997595;28;19975;-56
2023/01/08 12:21:05;;;;;;;;;;;;;;;;;;5007175;28;19930;-56
2023/01/08 12:23:31;;;;;;;;;;;;;;;;;;4996744;28;19948;-56
2023/01/08 12:25:57;;;;;;;;;;;;;;;;;;4991548;28;19918;-56
2023/01/08 12:28:23;;;;;;;;;;;;;;;;;;4986540;28;19966;-56
2023/01/08 12:30:50;;;;;;;;;;;;;;;;;;5049852;22;19952;-66
2023/01/08 12:33:16;;;;;;;;;;;;;;;;;;5036168;28;20261;-65
2023/01/08 12:35:41;;;;;;;;;;;;;;;;;;5037732;28;19943;-68
2023/01/08 12:38:07;;;;;;;;;;;;;;;;;;5025494;28;19925;-66
2023/01/08 12:40:33;;;;;;;;;;;;;;;;;;5037534;28;19927;-65
2023/01/08 12:42:59;;;;;;;;;;;;;;;;;;5019390;28;20063;-67
2023/01/08 12:45:25;;;;;;;;;;;;;;;;;;5017653;28;20083;-66
2023/01/08 12:47:51;;;;;;;;;;;;;;;;;;5031475;28;20031;-68
2023/01/08 12:50:16;;;;;;;;;;;;;;;;;;5036330;27;20134;-67
2023/01/08 12:52:42;;;;;;;;;;;;;;;;;;5034759;28;20390;-66
2023/01/08 12:55:08;;;;;;;;;;;;;;;;;;5036122;28;19964;-67
2023/01/08 12:57:34;;;;;;;;;;;;;;;;;;5020192;28;19931;-65
2023/01/08 13:00:00;;;;;;;;;;;;;;;;;;5028087;28;19917;-67
2023/01/08 13:02:26;;;;;;;;;;;;;;;;;;5036126;28;19929;-65
2023/01/08 13:04:52;;;;;;;;;;;;;;;;;;5032134;28;19928;-65
2023/01/08 13:07:18;;;;;;;;;;;;;;;;;;5042347;28;20317;-67
2023/01/08 13:09:44;;;;;;;;;;;;;;;;;;5044950;28;20389;-67
2023/01/08 13:12:10;;;;;;;;;;;;;;;;;;5049266;28;20143;-67
2023/01/08 13:14:35;;;;;;;;;;;;;;;;;;5060649;28;20570;-66
2023/01/08 13:17:01;;;;;;;;;;;;;;;;;;5039883;28;20619;-68
2023/01/08 13:19:27;;;;;;;;;;;;;;;;;;5056070;28;19930;-67
2023/01/08 13:21:53;;;;;;;;;;;;;;;;;;5031696;28;19924;-70
2023/01/08 13:24:19;;;;;;;;;;;;;;;;;;5050544;28;20497;-65
2023/01/08 13:26:45;;;;;;;;;;;;;;;;;;5042431;28;20365;-66
2023/01/08 13:29:11;;;;;;;;;;;;;;;;;;5040461;28;20197;-65
2023/01/08 13:31:36;;;;;;;;;;;;;;;;;;5034041;28;20022;-64
2023/01/08 13:34:02;;;;;;;;;;;;;;;;;;5045685;28;20372;-68
2023/01/08 13:36:29;;;;;;;;;;;;;;;;;;5048548;28;19925;-65
2023/01/08 13:38:54;;;;;;;;;;;;;;;;;;5050653;28;19932;-69
2023/01/08 13:41:20;;;;;;;;;;;;;;;;;;5039484;28;20078;-66
2023/01/08 13:43:47;;;;;;;;;;;;;;;;;;5046415;28;21393;-67
2023/01/08 13:46:12;;;;;;;;;;;;;;;;;;5042106;28;20338;-67
2023/01/08 13:48:38;;;;;;;;;;;;;;;;;;5045576;28;19924;-69
2023/01/08 13:51:04;;;;;;;;;;;;;;;;;;5046962;28;20019;-69
2023/01/08 13:53:30;;;;;;;;;;;;;;;;;;5028036;28;19981;-69
2023/01/08 13:55:56;;;;;;;;;;;;;;;;;;5049906;28;19934;-67
2023/01/08 13:58:22;;;;;;;;;;;;;;;;;;5059246;28;20396;-68
2023/01/08 14:00:48;;;;;;;;;;;;;;;;;;5042671;28;19978;-72
2023/01/08 14:03:14;;;;;;;;;;;;;;;;;;5038407;28;19924;-72
2023/01/08 14:05:39;;;;;;;;;;;;;;;;;;5040173;28;20389;-71
2023/01/08 14:08:05;;;;;;;;;;;;;;;;;;5029888;28;19928;-70
2023/01/08 14:10:31;;;;;;;;;;;;;;;;;;5043501;28;19924;-70
2023/01/08 14:12:57;;;;;;;;;;;;;;;;;;5040005;28;20004;-72
2023/01/08 14:15:23;;;;;;;;;;;;;;;;;;5051346;28;20798;-69
2023/01/08 14:17:49;;;;;;;;;;;;;;;;;;5036205;28;19925;-69
2023/01/08 14:20:15;;;;;;;;;;;;;;;;;;5037972;28;21164;-67
2023/01/08 14:22:40;;;;;;;;;;;;;;;;;;5050767;28;19931;-68
2023/01/08 14:25:06;;;;;;;;;;;;;;;;;;5039721;28;19971;-67
2023/01/08 14:27:32;;;;;;;;;;;;;;;;;;5041852;28;20014;-68
2023/01/08 14:29:58;;;;;;;;;;;;;;;;;;5043467;28;20465;-69
2023/01/08 14:32:24;;;;;;;;;;;;;;;;;;5029884;28;19928;-68
2023/01/08 14:34:50;;;;;;;;;;;;;;;;;;5029161;28;20300;-67
2023/01/08 14:37:16;;;;;;;;;;;;;;;;;;5044868;28;19925;-66
2023/01/08 14:39:42;;;;;;;;;;;;;;;;;;5044881;28;20385;-68
2023/01/08 14:44:52;;;;;;;;;;;;;;;;;;5042942;28;20020;-68
2023/01/08 14:47:18;;;;;;;;;;;;;;;;;;5042325;28;19921;-67
2023/01/08 14:49:44;;;;;;;;;;;;;;;;;;5043856;28;20370;-66
2023/01/08 14:52:10;;;;;;;;;;;;;;;;;;5032309;28;20392;-68
2023/01/08 14:54:36;;;;;;;;;;;;;;;;;;5046041;28;19947;-66
2023/01/08 14:57:01;;;;;;;;;;;;;;;;;;5037227;28;19924;-67
2023/01/08 14:59:27;;;;;;;;;;;;;;;;;;5048783;28;20368;-66
2023/01/08 15:01:53;;;;;;;;;;;;;;;;;;5049368;28;19932;-65
2023/01/08 15:04:19;;;;;;;;;;;;;;;;;;5045366;28;19932;-66
2023/01/08 15:06:45;;;;;;;;;;;;;;;;;;5037932;28;20495;-65
2023/01/08 15:09:11;;;;;;;;;;;;;;;;;;5057093;28;20894;-66
2023/01/08 15:11:36;;;;;;;;;;;;;;;;;;5041991;28;19984;-68
2023/01/08 15:14:02;;;;;;;;;;;;;;;;;;5050672;28;19925;-66
2023/01/08 15:16:28;;;;;;;;;;;;;;;;;;5040915;28;20005;-66
2023/01/08 15:18:54;;;;;;;;;;;;;;;;;;5050013;28;19924;-66
2023/01/08 15:21:20;;;;;;;;;;;;;;;;;;5060986;28;20335;-66
2023/01/08 15:23:47;;;;;;;;;;;;;;;;;;5041871;28;19931;-65
2023/01/08 15:26:13;;;;;;;;;;;;;;;;;;5054660;28;20011;-66
2023/01/08 15:28:39;;;;;;;;;;;;;;;;;;5056997;28;19924;-66
2023/01/08 15:31:06;;;;;;;;;;;;;;;;;;5045791;28;20031;-66
2023/01/08 15:33:31;;;;;;;;;;;;;;;;;;5049266;28;19931;-67
2023/01/08 15:35:57;;;;;;;;;;;;;;;;;;5043201;28;19924;-68
2023/01/08 15:38:23;;;;;;;;;;;;;;;;;;5039714;28;19956;-64
2023/01/08 15:40:49;;;;;;;;;;;;;;;;;;5045785;28;19936;-68
2023/01/08 15:43:15;;;;;;;;;;;;;;;;;;5033101;28;19932;-68
2023/01/08 15:45:41;;;;;;;;;;;;;;;;;;5035198;28;20354;-66
2023/01/08 15:48:07;;;;;;;;;;;;;;;;;;5056598;28;19924;-64
2023/01/08 15:50:36;;;;;;;;;;;;;;;;;;5047707;28;19920;-67
2023/01/08 15:53:02;;;;;;;;;;;;;;;;;;5045074;28;20635;-65
2023/01/08 15:55:28;;;;;;;;;;;;;;;;;;5040342;28;19931;-66
2023/01/08 15:57:54;;;;;;;;;;;;;;;;;;5047415;28;19920;-65
2023/01/08 16:00:21;;;;;;;;;;;;;;;;;;5030224;28;21158;-66
2023/01/08 16:02:47;;;;;;;;;;;;;;;;;;5052413;28;19924;-66
2023/01/08 16:05:13;;;;;;;;;;;;;;;;;;5054882;28;20353;-65
2023/01/08 16:07:39;;;;;;;;;;;;;;;;;;5057554;28;19958;-68
2023/01/08 16:10:05;;;;;;;;;;;;;;;;;;5036758;28;19978;-66
2023/01/08 16:12:31;;;;;;;;;;;;;;;;;;5026454;28;19942;-66
2023/01/08 16:14:56;;;;;;;;;;;;;;;;;;5014967;28;19925;-65
2023/01/08 16:17:22;;;;;;;;;;;;;;;;;;5034543;28;20373;-66
2023/01/08 16:19:48;;;;;;;;;;;;;;;;;;5043178;28;19920;-67
2023/01/08 16:22:14;;;;;;;;;;;;;;;;;;5044431;28;19935;-67
2023/01/08 16:24:40;;;;;;;;;;;;;;;;;;5038073;28;19935;-65
2023/01/08 16:27:08;;;;;;;;;;;;;;;;;;5040021;28;20486;-66
2023/01/08 16:29:34;;;;;;;;;;;;;;;;;;5048730;28;19927;-65
2023/01/08 16:32:00;;;;;;;;;;;;;;;;;;5051524;28;19928;-67
2023/01/08 16:34:26;;;;;;;;;;;;;;;;;;5051898;28;19927;-67
2023/01/08 16:36:51;;;;;;;;;;;;;;;;;;5062489;28;19935;-66
2023/01/08 16:39:18;;;;;;;;;;;;;;;;;;5051937;28;20341;-67